createdAt,value
2023-03-26T00:01:55.356Z,1.20
2023-03-26T00:04:25.432Z,1.10
2023-03-26T00:06:54.347Z,1.40
2023-03-26T00:09:22.519Z,1.20
2023-03-26T00:11:50.942Z,1.20
2023-03-26T00:14:19.158Z,1.10
2023-03-26T00:16:49.894Z,1.00
2023-03-26T00:19:18.167Z,1.10
2023-03-26T00:21:48.484Z,1.00
2023-03-26T00:24:17.604Z,1.50
2023-03-26T00:26:48.784Z,0.80
2023-03-26T00:29:17.026Z,1.00
2023-03-26T00:31:46.651Z,1.00
2023-03-26T00:34:18.716Z,1.00
2023-03-26T00:36:47.415Z,1.20
2023-03-26T00:39:17.910Z,0.90
2023-03-26T00:41:46.769Z,1.10
2023-03-26T00:44:14.868Z,1.10
2023-03-26T00:46:42.940Z,1.10
2023-03-26T00:49:14.924Z,1.00
2023-03-26T00:51:42.928Z,1.40
2023-03-26T00:54:12.054Z,0.90
2023-03-26T00:56:40.161Z,1.10
2023-03-26T00:59:11.876Z,0.90
2023-03-26T01:01:40.281Z,0.90
2023-03-26T01:04:31.821Z,0.80
2023-03-26T01:07:10.913Z,1.30
2023-03-26T01:09:45.904Z,0.90
2023-03-26T01:12:18.731Z,1.00
2023-03-26T01:14:49.653Z,0.90
2023-03-26T01:20:15.214Z,0.90
2023-03-26T01:22:49.618Z,1.10
2023-03-26T01:25:18.632Z,1.20
2023-03-26T01:27:54.664Z,0.90
2023-03-26T01:30:43.516Z,1.40
2023-03-26T01:33:56.658Z,1.20
2023-03-26T01:36:38.335Z,1.00
2023-03-26T01:39:18.719Z,1.00
2023-03-26T01:41:57.305Z,1.00
2023-03-26T01:44:34.092Z,1.00
2023-03-26T01:47:03.284Z,1.20
2023-03-26T01:49:31.972Z,1.30
2023-03-26T01:52:00.008Z,1.30
2023-03-26T01:54:31.734Z,1.10
2023-03-26T01:57:16.044Z,1.00
2023-03-26T02:00:18.228Z,1.20
2023-03-26T02:03:08.942Z,1.10
2023-03-26T02:05:54.696Z,1.00
2023-03-26T02:08:36.019Z,1.10
2023-03-26T02:11:14.331Z,0.90
2023-03-26T02:13:45.966Z,0.90
2023-03-26T02:16:17.244Z,0.80
2023-03-26T02:18:51.403Z,0.80
2023-03-26T02:21:22.351Z,0.90
2023-03-26T02:23:58.155Z,0.90
2023-03-26T02:26:26.273Z,0.70
2023-03-26T02:29:02.332Z,1.00
2023-03-26T02:31:30.646Z,1.00
2023-03-26T02:33:58.886Z,1.10
2023-03-26T02:36:28.154Z,1.10
2023-03-26T02:39:00.514Z,1.00
2023-03-26T02:41:30.426Z,1.10
2023-03-26T02:44:02.120Z,1.00
2023-03-26T02:46:53.734Z,0.80
2023-03-26T02:49:40.857Z,1.10
2023-03-26T02:52:09.844Z,0.90
2023-03-26T02:54:38.298Z,1.00
2023-03-26T02:57:09.339Z,1.20
2023-03-26T02:59:52.996Z,0.90
2023-03-26T03:02:41.437Z,0.90
2023-03-26T03:05:29.001Z,0.80
2023-03-26T03:08:22.070Z,0.80
2023-03-26T03:11:14.838Z,1.10
2023-03-26T03:13:51.032Z,0.90
2023-03-26T03:16:27.808Z,0.90
2023-03-26T03:18:58.022Z,0.80
2023-03-26T03:21:29.335Z,1.00
2023-03-26T03:23:59.987Z,0.80
2023-03-26T03:26:30.550Z,0.70
2023-03-26T03:29:00.972Z,1.00
2023-03-26T03:31:29.273Z,0.80
2023-03-26T03:34:01.472Z,1.00
2023-03-26T03:36:33.167Z,1.30
2023-03-26T03:39:08.920Z,1.20
2023-03-26T03:41:37.711Z,1.00
2023-03-26T03:44:08.037Z,1.10
2023-03-26T03:46:36.780Z,1.20
2023-03-26T03:49:05.206Z,1.10
2023-03-26T03:51:37.268Z,1.70
2023-03-26T03:54:11.677Z,1.50
2023-03-26T03:57:00.167Z,1.40
2023-03-26T03:59:47.445Z,1.30
2023-03-26T04:02:35.203Z,1.50
2023-03-26T04:05:06.320Z,1.60
2023-03-26T04:07:35.934Z,1.60
2023-03-26T04:10:08.890Z,1.60
2023-03-26T04:12:55.526Z,1.60
2023-03-26T04:15:36.717Z,1.50
2023-03-26T04:18:10.497Z,1.50
2023-03-26T04:20:42.135Z,1.80
2023-03-26T04:23:14.341Z,1.60
2023-03-26T04:28:46.529Z,1.30
2023-03-26T04:31:29.141Z,1.60
2023-03-26T04:34:05.761Z,1.90
2023-03-26T04:36:35.502Z,1.90
2023-03-26T04:39:05.349Z,1.60
2023-03-26T04:41:59.096Z,1.60
2023-03-26T04:44:32.081Z,1.70
2023-03-26T04:47:08.140Z,1.70
2023-03-26T04:49:42.885Z,1.90
2023-03-26T04:52:12.972Z,1.80
2023-03-26T04:54:59.797Z,1.50
2023-03-26T04:57:39.740Z,1.20
2023-03-26T05:00:17.648Z,1.40
2023-03-26T05:02:50.525Z,1.60
2023-03-26T05:05:19.118Z,1.40
2023-03-26T05:07:47.374Z,1.70
2023-03-26T05:10:17.400Z,1.40
2023-03-26T05:12:52.476Z,1.60
2023-03-26T05:15:28.999Z,1.40
2023-03-26T05:18:10.737Z,1.60
2023-03-26T05:20:42.482Z,2.20
2023-03-26T05:23:11.131Z,2.00
2023-03-26T05:25:42.800Z,2.80
2023-03-26T05:28:16.077Z,2.10
2023-03-26T05:30:54.458Z,2.00
2023-03-26T05:33:24.025Z,2.30
2023-03-26T05:36:01.382Z,1.50
2023-03-26T05:38:31.200Z,1.50
2023-03-26T05:41:06.278Z,1.70
2023-03-26T05:43:35.539Z,1.80
2023-03-26T05:46:33.134Z,1.70
2023-03-26T05:49:01.577Z,1.30
2023-03-26T05:51:32.205Z,1.20
2023-03-26T05:54:13.579Z,1.30
2023-03-26T05:57:01.857Z,0.90
2023-03-26T05:59:53.546Z,1.20
2023-03-26T06:02:40.137Z,1.10
2023-03-26T06:05:27.379Z,0.90
2023-03-26T06:08:16.143Z,1.00
2023-03-26T06:10:51.613Z,1.10
2023-03-26T06:13:19.859Z,1.00
2023-03-26T06:15:50.518Z,1.00
2023-03-26T06:18:26.994Z,1.10
2023-03-26T06:21:27.628Z,1.10
2023-03-26T06:24:05.080Z,1.00
2023-03-26T06:26:49.126Z,1.00
2023-03-26T06:29:40.446Z,1.00
2023-03-26T06:32:40.975Z,0.90
2023-03-26T06:35:12.638Z,1.10
2023-03-26T06:37:42.550Z,0.90
2023-03-26T06:40:11.984Z,0.80
2023-03-26T06:43:09.477Z,0.70
2023-03-26T06:45:52.450Z,1.00
2023-03-26T06:48:26.223Z,0.90
2023-03-26T06:51:17.610Z,0.70
2023-03-26T06:54:15.513Z,1.00
2023-03-26T06:57:10.070Z,1.10
2023-03-26T07:00:06.151Z,1.00
2023-03-26T07:02:53.023Z,0.90
2023-03-26T07:05:43.743Z,0.80
2023-03-26T07:08:41.005Z,0.80
2023-03-26T07:11:27.538Z,0.80
2023-03-26T07:14:18.609Z,1.10
2023-03-26T07:17:04.615Z,0.80
2023-03-26T07:19:54.080Z,0.90
2023-03-26T07:22:26.133Z,0.90
2023-03-26T07:25:14.496Z,0.80
2023-03-26T07:28:20.661Z,0.90
2023-03-26T07:31:07.054Z,0.70
2023-03-26T07:34:08.273Z,0.80
2023-03-26T07:37:07.503Z,0.60
2023-03-26T07:40:09.669Z,0.80
2023-03-26T07:44:12.654Z,0.60
2023-03-26T07:46:55.974Z,0.60
2023-03-26T07:49:43.519Z,0.60
2023-03-26T07:52:31.763Z,0.70
2023-03-26T07:55:15.643Z,0.90
2023-03-26T07:58:20.946Z,1.00
2023-03-26T08:01:35.022Z,1.20
2023-03-26T08:04:26.475Z,2.00
2023-03-26T08:07:45.367Z,1.10
2023-03-26T08:10:32.879Z,0.90
2023-03-26T08:13:25.552Z,0.80
2023-03-26T08:16:08.206Z,0.80
2023-03-26T08:19:03.359Z,1.00
2023-03-26T08:21:39.848Z,0.60
2023-03-26T08:24:30.626Z,0.50
2023-03-26T08:27:02.700Z,0.60
2023-03-26T08:29:59.850Z,0.50
2023-03-26T08:32:28.553Z,0.50
2023-03-26T08:34:57.627Z,0.90
2023-03-26T08:37:27.374Z,0.80
2023-03-26T08:39:55.778Z,0.80
2023-03-26T08:42:36.876Z,1.20
2023-03-26T08:45:11.623Z,1.20
2023-03-26T08:48:17.995Z,0.80
2023-03-26T08:51:07.968Z,0.80
2023-03-26T08:53:59.995Z,0.50
2023-03-26T08:56:49.743Z,0.30
2023-03-26T08:59:35.468Z,0.80
2023-03-26T09:02:43.470Z,0.30
2023-03-26T09:05:36.371Z,0.30
2023-03-26T09:08:22.514Z,0.40
2023-03-26T09:11:03.358Z,0.70
2023-03-26T09:13:45.430Z,0.70
2023-03-26T09:16:31.914Z,0.70
2023-03-26T09:19:15.735Z,0.50
2023-03-26T09:22:11.702Z,0.50
2023-03-26T09:25:00.698Z,0.40
2023-03-26T09:27:47.634Z,0.40
2023-03-26T09:30:39.865Z,0.20
2023-03-26T09:33:23.565Z,0.30
2023-03-26T09:35:55.268Z,0.20
2023-03-26T09:38:58.651Z,0.30
2023-03-26T09:41:36.501Z,0.50
2023-03-26T09:44:04.457Z,0.60
2023-03-26T09:46:51.211Z,0.30
2023-03-26T09:49:39.542Z,0.30
2023-03-26T09:52:25.485Z,0.20
2023-03-26T09:55:15.245Z,0.40
2023-03-26T09:57:59.735Z,0.30
2023-03-26T10:01:01.200Z,0.30
2023-03-26T10:03:35.069Z,0.20
2023-03-26T10:06:06.913Z,0.50
2023-03-26T10:08:55.973Z,0.20
2023-03-26T10:11:29.077Z,0.70
2023-03-26T10:14:23.760Z,0.80
2023-03-26T10:17:20.720Z,0.80
2023-03-26T10:20:04.928Z,0.50
2023-03-26T10:22:53.468Z,0.60
2023-03-26T10:25:31.118Z,0.40
2023-03-26T10:28:21.206Z,0.70
2023-03-26T10:31:24.199Z,0.60
2023-03-26T10:34:28.360Z,0.70
2023-03-26T10:37:16.448Z,0.60
2023-03-26T10:40:06.974Z,0.70
2023-03-26T10:43:08.394Z,0.70
2023-03-26T10:46:13.078Z,0.60
2023-03-26T10:49:20.825Z,0.60
2023-03-26T10:51:56.674Z,0.60
2023-03-26T10:54:46.253Z,0.90
2023-03-26T10:57:53.943Z,0.80
2023-03-26T11:00:27.039Z,0.80
2023-03-26T11:02:55.001Z,0.80
2023-03-26T11:05:48.203Z,0.60
2023-03-26T11:08:31.114Z,0.60
2023-03-26T11:11:26.005Z,0.60
2023-03-26T11:14:31.850Z,0.60
2023-03-26T11:17:05.753Z,0.40
2023-03-26T11:19:37.197Z,1.00
2023-03-26T11:22:29.438Z,0.60
2023-03-26T11:25:26.364Z,0.70
2023-03-26T11:28:28.358Z,0.40
2023-03-26T11:31:02.172Z,0.40
2023-03-26T11:33:38.082Z,0.50
2023-03-26T11:36:21.770Z,0.40
2023-03-26T11:38:52.515Z,0.40
2023-03-26T11:41:31.388Z,0.40
2023-03-26T11:44:13.990Z,0.30
2023-03-26T11:46:46.304Z,0.30
2023-03-26T11:49:19.748Z,0.30
2023-03-26T11:51:49.396Z,0.20
2023-03-26T11:54:18.075Z,0.40
2023-03-26T11:57:07.273Z,0.60
2023-03-26T11:59:56.525Z,0.40
2023-03-26T12:02:34.235Z,0.70
2023-03-26T12:05:15.306Z,0.40
2023-03-26T12:07:52.689Z,0.30
2023-03-26T12:10:24.097Z,0.40
2023-03-26T12:12:58.295Z,0.40
2023-03-26T12:15:28.349Z,0.20
2023-03-26T12:17:58.316Z,0.20
2023-03-26T12:20:26.883Z,0.20
2023-03-26T12:22:59.674Z,0.30
2023-03-26T12:25:35.679Z,0.30
2023-03-26T12:28:14.348Z,0.40
2023-03-26T12:30:55.137Z,0.20
2023-03-26T12:33:27.324Z,0.30
2023-03-26T12:36:00.631Z,0.50
2023-03-26T12:38:30.264Z,0.40
2023-03-26T12:41:06.685Z,0.30
2023-03-26T12:44:48.103Z,0.30
2023-03-26T12:47:58.101Z,0.20
2023-03-26T12:49:28.629Z,0.30
2023-03-26T12:52:14.979Z,0.30
2023-03-26T12:54:58.671Z,0.50
2023-03-26T12:57:43.669Z,0.30
2023-03-26T13:00:41.020Z,0.30
2023-03-26T13:03:18.281Z,0.30
2023-03-26T13:06:24.083Z,0.60
2023-03-26T13:09:10.468Z,0.30
2023-03-26T13:12:00.450Z,0.30
2023-03-26T13:14:34.348Z,0.20
2023-03-26T13:17:11.656Z,0.30
2023-03-26T13:20:00.313Z,0.20
2023-03-26T13:22:43.214Z,0.30
2023-03-26T13:25:14.269Z,0.80
2023-03-26T13:27:48.474Z,0.30
2023-03-26T13:30:16.392Z,0.30
2023-03-26T13:33:05.941Z,0.50
2023-03-26T13:36:21.922Z,0.30
2023-03-26T13:39:08.177Z,0.50
2023-03-26T13:41:51.532Z,0.30
2023-03-26T13:44:28.811Z,0.20
2023-03-26T13:47:04.966Z,0.20
2023-03-26T13:49:41.143Z,0.30
2023-03-26T13:52:27.166Z,0.30
2023-03-26T13:55:25.408Z,0.30
2023-03-26T13:58:02.180Z,0.50
2023-03-26T14:00:54.700Z,0.20
2023-03-26T14:03:35.759Z,0.70
2023-03-26T14:06:23.145Z,0.40
2023-03-26T14:09:27.140Z,0.30
2023-03-26T14:12:21.557Z,0.40
2023-03-26T14:15:04.231Z,0.50
2023-03-26T14:17:47.618Z,0.50
2023-03-26T14:20:34.279Z,0.50
2023-03-26T14:23:23.552Z,0.50
2023-03-26T14:25:56.171Z,0.30
2023-03-26T14:28:42.713Z,0.50
2023-03-26T14:31:20.850Z,0.40
2023-03-26T14:34:15.060Z,0.30
2023-03-26T14:37:08.170Z,0.50
2023-03-26T14:39:48.424Z,0.20
2023-03-26T14:42:30.114Z,0.30
2023-03-26T14:45:46.047Z,0.30
2023-03-26T14:48:38.306Z,0.40
2023-03-26T14:51:28.218Z,0.20
2023-03-26T14:54:02.481Z,0.80
2023-03-26T14:56:33.618Z,0.50
2023-03-26T14:59:07.615Z,0.50
2023-03-26T15:01:57.004Z,0.40
2023-03-26T15:04:28.206Z,0.50
2023-03-26T15:07:24.028Z,0.60
2023-03-26T15:10:17.097Z,0.40
2023-03-26T15:13:06.877Z,0.40
2023-03-26T15:15:53.891Z,0.50
2023-03-26T15:18:53.331Z,0.40
2023-03-26T15:21:52.389Z,0.70
2023-03-26T15:24:27.114Z,0.40
2023-03-26T15:27:26.956Z,0.60
2023-03-26T15:30:04.518Z,1.00
2023-03-26T15:32:58.188Z,0.70
2023-03-26T15:36:04.894Z,0.60
2023-03-26T15:38:50.757Z,0.50
2023-03-26T15:41:42.171Z,0.30
2023-03-26T15:44:25.092Z,0.40
2023-03-26T15:47:33.305Z,0.60
2023-03-26T15:50:45.094Z,0.50
2023-03-26T15:53:35.071Z,0.40
2023-03-26T15:56:10.327Z,0.40
2023-03-26T15:59:05.412Z,0.60
2023-03-26T16:02:04.213Z,0.70
2023-03-26T16:04:54.194Z,0.50
2023-03-26T16:07:43.864Z,0.60
2023-03-26T16:10:28.371Z,0.50
2023-03-26T16:13:14.525Z,0.50
2023-03-26T16:15:43.984Z,0.20
2023-03-26T16:18:15.788Z,0.60
2023-03-26T16:20:50.800Z,0.50
2023-03-26T16:23:24.734Z,0.60
2023-03-26T16:26:08.260Z,0.30
2023-03-26T16:29:02.937Z,0.70
2023-03-26T16:31:38.718Z,0.70
2023-03-26T16:34:21.630Z,0.70
2023-03-26T16:36:53.128Z,1.30
2023-03-26T16:39:44.318Z,1.10
2023-03-26T16:42:15.819Z,1.80
2023-03-26T16:45:11.725Z,1.40
2023-03-26T16:48:18.250Z,1.50
2023-03-26T16:51:06.770Z,1.60
2023-03-26T16:53:41.752Z,2.00
2023-03-26T16:56:12.967Z,2.10
2023-03-26T16:58:49.411Z,1.90
2023-03-26T17:01:28.600Z,1.90
2023-03-26T17:04:20.671Z,1.80
2023-03-26T17:07:09.130Z,2.00
2023-03-26T17:10:15.099Z,2.00
2023-03-26T17:12:55.642Z,2.30
2023-03-26T17:15:45.063Z,2.00
2023-03-26T17:18:43.764Z,1.30
2023-03-26T17:21:45.752Z,1.20
2023-03-26T17:24:26.916Z,1.20
2023-03-26T17:27:25.551Z,1.70
2023-03-26T17:30:32.527Z,2.00
2023-03-26T17:33:03.751Z,1.80
2023-03-26T17:35:47.391Z,1.30
2023-03-26T17:38:15.486Z,1.40
2023-03-26T17:40:48.679Z,1.80
2023-03-26T17:43:37.228Z,1.50
2023-03-26T17:46:13.978Z,2.00
2023-03-26T17:48:47.100Z,2.20
2023-03-26T17:51:37.241Z,2.20
2023-03-26T17:54:34.224Z,1.80
2023-03-26T17:57:25.545Z,2.10
2023-03-26T17:59:58.136Z,2.00
2023-03-26T18:02:42.411Z,2.20
2023-03-26T18:05:14.554Z,2.00
2023-03-26T18:08:17.932Z,2.60
2023-03-26T18:11:12.523Z,2.00
2023-03-26T18:13:59.433Z,1.80
2023-03-26T18:16:49.776Z,4.70
2023-03-26T18:19:22.237Z,4.60
2023-03-26T18:21:59.004Z,3.40
2023-03-26T18:24:31.977Z,2.10
2023-03-26T18:27:09.552Z,2.50
2023-03-26T18:29:44.137Z,5.00
2023-03-26T18:32:12.401Z,4.00
2023-03-26T18:34:50.136Z,3.40
2023-03-26T18:37:23.097Z,2.30
2023-03-26T18:40:18.331Z,3.30
2023-03-26T18:42:49.685Z,2.50
2023-03-26T18:45:34.255Z,1.80
2023-03-26T18:48:10.622Z,3.10
2023-03-26T18:50:42.072Z,2.40
2023-03-26T18:53:24.707Z,5.10
2023-03-26T18:55:56.324Z,7.40
2023-03-26T18:58:43.949Z,3.50
2023-03-26T19:01:23.718Z,3.40
2023-03-26T19:03:54.770Z,3.30
2023-03-26T19:06:23.832Z,3.30
2023-03-26T19:08:53.298Z,5.70
2023-03-26T19:11:22.017Z,3.20
2023-03-26T19:14:03.304Z,4.00
2023-03-26T19:16:35.676Z,3.50
2023-03-26T19:21:36.328Z,5.00
2023-03-26T19:24:05.147Z,4.30
2023-03-26T19:26:34.313Z,5.50
2023-03-26T19:29:03.019Z,5.30
2023-03-26T19:31:38.135Z,4.70
2023-03-26T19:34:26.205Z,5.60
2023-03-26T19:36:59.894Z,4.80
2023-03-26T19:39:55.507Z,3.50
2023-03-26T19:42:43.121Z,3.70
2023-03-26T19:45:23.236Z,3.20
2023-03-26T19:48:00.450Z,6.00
2023-03-26T19:50:34.429Z,3.70
2023-03-26T19:53:16.891Z,4.10
2023-03-26T19:56:04.511Z,4.10
2023-03-26T19:58:35.787Z,7.50
2023-03-26T20:01:04.947Z,11.30
2023-03-26T20:03:44.619Z,15.20
2023-03-26T20:06:15.893Z,9.50
2023-03-26T20:08:44.536Z,7.00
2023-03-26T20:11:16.796Z,6.10
2023-03-26T20:16:35.189Z,5.10
2023-03-26T20:19:04.387Z,4.50
2023-03-26T20:21:34.883Z,4.70
2023-03-26T20:24:14.601Z,4.50
2023-03-26T20:26:43.910Z,5.20
2023-03-26T20:29:13.107Z,5.70
2023-03-26T20:31:42.126Z,7.20
2023-03-26T20:34:24.616Z,8.70
2023-03-26T20:36:55.495Z,7.30
2023-03-26T20:39:25.056Z,7.10
2023-03-26T20:41:54.876Z,7.00
2023-03-26T20:44:23.584Z,8.60
2023-03-26T20:46:58.933Z,10.90
2023-03-26T20:49:30.131Z,11.40
2023-03-26T20:52:00.496Z,13.60
2023-03-26T20:54:31.990Z,6.00
2023-03-26T20:57:00.368Z,5.10
2023-03-26T20:59:36.121Z,9.00
2023-03-26T21:02:06.910Z,7.00
2023-03-26T21:04:35.256Z,3.80
2023-03-26T21:07:17.539Z,5.90
2023-03-26T21:12:30.495Z,7.00
2023-03-26T21:15:01.780Z,3.80
2023-03-26T21:17:33.454Z,3.80
2023-03-26T21:20:13.678Z,3.90
2023-03-26T21:22:46.450Z,4.10
2023-03-26T21:25:41.805Z,8.60
2023-03-26T21:28:41.847Z,5.00
2023-03-26T21:31:22.045Z,6.30
2023-03-26T21:33:51.067Z,6.90
2023-03-26T21:36:22.024Z,6.60
2023-03-26T21:38:50.776Z,6.20
2023-03-26T21:41:23.922Z,5.50
2023-03-26T21:43:51.951Z,5.00
2023-03-26T21:46:25.758Z,4.80
2023-03-26T21:48:55.397Z,5.00
2023-03-26T21:51:27.221Z,4.90
2023-03-26T21:53:56.096Z,5.30
2023-03-26T21:56:50.641Z,5.90
2023-03-26T21:59:46.761Z,6.10
2023-03-26T22:02:43.672Z,8.10
2023-03-26T22:05:16.445Z,6.80
2023-03-26T22:08:00.508Z,7.30
2023-03-26T22:10:31.081Z,6.30
2023-03-26T22:12:59.857Z,6.60
2023-03-26T22:15:30.917Z,7.20
2023-03-26T22:18:04.048Z,7.30
2023-03-26T22:20:32.109Z,8.30
2023-03-26T22:23:01.016Z,15.30
2023-03-26T22:25:31.218Z,10.70
2023-03-26T22:28:04.642Z,11.70
2023-03-26T22:30:33.659Z,12.20
2023-03-26T22:33:01.619Z,8.40
2023-03-26T22:35:29.950Z,6.90
2023-03-26T22:38:00.457Z,7.10
2023-03-26T22:40:29.670Z,6.90
2023-03-26T22:46:00.308Z,8.30
2023-03-26T22:48:32.026Z,6.50
2023-03-26T22:51:03.221Z,6.60
2023-03-26T22:53:32.423Z,9.80
2023-03-26T22:56:01.028Z,6.60
2023-03-26T22:58:30.010Z,5.80
2023-03-26T23:01:08.419Z,5.90
2023-03-26T23:03:37.310Z,6.10
2023-03-26T23:06:33.378Z,6.30
2023-03-26T23:09:01.407Z,7.30
2023-03-26T23:11:31.311Z,5.70
2023-03-26T23:13:59.498Z,6.60
2023-03-26T23:16:28.142Z,7.00
2023-03-26T23:18:56.147Z,5.90
2023-03-26T23:21:24.875Z,6.00
2023-03-26T23:23:52.921Z,6.40
2023-03-26T23:26:21.632Z,5.90
2023-03-26T23:28:51.302Z,6.30
2023-03-26T23:31:21.921Z,5.90
2023-03-26T23:33:50.626Z,7.10
2023-03-26T23:36:20.642Z,9.00
2023-03-26T23:38:49.690Z,7.10
2023-03-26T23:41:21.617Z,6.30
2023-03-26T23:43:54.389Z,6.80
2023-03-26T23:46:30.977Z,7.70
2023-03-26T23:49:02.655Z,9.30
2023-03-26T23:51:32.407Z,9.40
2023-03-26T23:54:01.750Z,9.70
2023-03-26T23:56:30.107Z,9.00
2023-03-26T23:59:00.921Z,8.80
